createdAt,value
2018-08-07T00:00:09.342Z,2.07
2018-08-07T00:02:37.964Z,2.20
2018-08-07T00:05:06.961Z,2.30
2018-08-07T00:07:35.612Z,2.13
2018-08-07T00:10:05.015Z,2.60
2018-08-07T00:12:33.679Z,2.70
2018-08-07T00:15:02.463Z,2.40
2018-08-07T00:17:31.116Z,2.70
2018-08-07T00:19:59.805Z,2.50
2018-08-07T00:22:28.465Z,2.60
2018-08-07T00:24:57.156Z,3.43
2018-08-07T00:27:25.819Z,3.10
2018-08-07T00:29:54.433Z,2.70
2018-08-07T00:32:23.072Z,2.33
2018-08-07T00:34:52.608Z,2.50
2018-08-07T00:37:21.401Z,2.47
2018-08-07T00:39:50.054Z,2.80
2018-08-07T00:42:18.724Z,2.80
2018-08-07T00:44:47.412Z,3.07
2018-08-07T00:47:16.185Z,2.57
2018-08-07T00:49:44.833Z,2.73
2018-08-07T00:52:13.413Z,2.60
2018-08-07T00:54:42.067Z,2.63
2018-08-07T00:57:10.798Z,2.20
2018-08-07T00:59:39.494Z,2.63
2018-08-07T01:02:08.183Z,2.97
2018-08-07T01:04:37.139Z,2.70
2018-08-07T01:07:05.824Z,2.57
2018-08-07T01:09:34.444Z,3.00
2018-08-07T01:12:03.031Z,2.70
2018-08-07T01:14:31.616Z,3.03
2018-08-07T01:17:00.496Z,3.10
2018-08-07T01:19:29.143Z,2.90
2018-08-07T01:21:57.820Z,2.80
2018-08-07T01:24:26.522Z,2.73
2018-08-07T01:26:55.213Z,2.90
2018-08-07T01:29:23.878Z,2.97
2018-08-07T01:31:52.515Z,2.90
2018-08-07T01:34:21.424Z,3.53
2018-08-07T01:36:50.064Z,3.43
2018-08-07T01:39:18.643Z,3.00
2018-08-07T01:41:47.717Z,3.03
2018-08-07T01:44:16.353Z,3.20
2018-08-07T01:46:45.297Z,2.57
2018-08-07T01:49:14.008Z,3.20
2018-08-07T01:51:42.711Z,2.70
2018-08-07T01:54:11.491Z,3.27
2018-08-07T01:56:40.115Z,3.30
2018-08-07T01:59:08.805Z,3.33
2018-08-07T02:01:37.912Z,4.20
2018-08-07T02:04:06.803Z,7.67
2018-08-07T02:06:35.532Z,8.70
2018-08-07T02:09:06.459Z,5.27
2018-08-07T02:11:35.210Z,3.90
2018-08-07T02:14:04.181Z,4.60
2018-08-07T02:16:32.932Z,4.40
2018-08-07T02:19:01.680Z,4.20
2018-08-07T02:21:30.364Z,4.47
2018-08-07T02:23:58.984Z,3.47
2018-08-07T02:26:28.049Z,3.60
2018-08-07T02:28:56.693Z,4.17
2018-08-07T02:31:25.417Z,3.67
2018-08-07T02:33:54.321Z,4.00
2018-08-07T02:36:24.252Z,3.90
2018-08-07T02:38:52.964Z,3.70
2018-08-07T02:41:21.620Z,3.73
2018-08-07T02:43:50.269Z,3.57
2018-08-07T02:46:18.953Z,3.47
2018-08-07T02:48:47.615Z,3.83
2018-08-07T02:51:16.242Z,3.53
2018-08-07T02:53:44.971Z,4.00
2018-08-07T02:56:13.687Z,3.70
2018-08-07T02:58:42.470Z,3.40
2018-08-07T03:01:11.349Z,3.63
2018-08-07T03:03:39.943Z,3.40
2018-08-07T03:06:08.649Z,3.93
2018-08-07T03:08:37.243Z,3.27
2018-08-07T03:11:05.869Z,4.40
2018-08-07T03:13:34.565Z,3.50
2018-08-07T03:16:03.257Z,3.73
2018-08-07T03:18:31.885Z,3.90
2018-08-07T03:21:01.351Z,3.90
2018-08-07T03:23:30.011Z,3.97
2018-08-07T03:25:58.583Z,4.40
2018-08-07T03:28:27.306Z,4.60
2018-08-07T03:30:55.870Z,4.07
2018-08-07T03:33:24.512Z,4.70
2018-08-07T03:35:53.183Z,4.40
2018-08-07T03:38:21.875Z,4.37
2018-08-07T03:40:50.547Z,4.23
2018-08-07T03:43:19.218Z,5.70
2018-08-07T03:45:47.865Z,4.90
2018-08-07T03:48:16.471Z,4.20
2018-08-07T03:50:45.069Z,4.20
2018-08-07T03:53:13.798Z,4.40
2018-08-07T03:55:42.425Z,4.47
2018-08-07T03:58:11.044Z,4.27
2018-08-07T04:00:45.550Z,4.00
2018-08-07T04:03:14.181Z,4.80
2018-08-07T04:05:42.881Z,4.77
2018-08-07T04:08:11.718Z,4.43
2018-08-07T04:10:40.443Z,4.50
2018-08-07T04:13:09.078Z,4.40
2018-08-07T04:15:37.911Z,4.10
2018-08-07T04:18:06.628Z,4.70
2018-08-07T04:20:35.321Z,4.70
2018-08-07T04:23:03.989Z,4.17
2018-08-07T04:25:32.600Z,4.30
2018-08-07T04:28:01.261Z,4.57
2018-08-07T04:30:29.853Z,4.33
2018-08-07T04:32:58.567Z,4.37
2018-08-07T04:35:27.274Z,4.30
2018-08-07T04:37:55.924Z,3.90
2018-08-07T04:40:24.544Z,4.53
2018-08-07T04:42:53.456Z,4.00
2018-08-07T04:45:22.063Z,4.07
2018-08-07T04:47:50.675Z,4.13
2018-08-07T04:50:19.350Z,3.83
2018-08-07T04:52:48.018Z,4.07
2018-08-07T04:55:16.751Z,4.50
2018-08-07T04:57:45.556Z,4.13
2018-08-07T05:00:16.856Z,3.73
2018-08-07T05:02:46.353Z,3.90
2018-08-07T05:05:15.053Z,3.50
2018-08-07T05:07:43.613Z,3.80
2018-08-07T05:10:14.356Z,3.80
2018-08-07T05:12:43.839Z,3.30
2018-08-07T05:15:12.814Z,2.97
2018-08-07T05:17:42.530Z,3.70
2018-08-07T05:20:11.303Z,3.50
2018-08-07T05:22:40.482Z,3.37
2018-08-07T05:25:10.702Z,3.90
2018-08-07T05:27:39.419Z,3.10
2018-08-07T05:30:11.072Z,4.10
2018-08-07T05:32:39.717Z,3.67
2018-08-07T05:35:08.802Z,3.97
2018-08-07T05:37:37.550Z,4.60
2018-08-07T05:40:06.846Z,4.87
2018-08-07T05:42:35.700Z,4.43
2018-08-07T05:45:06.286Z,5.60
2018-08-07T05:47:35.785Z,4.50
2018-08-07T05:50:07.048Z,4.90
2018-08-07T05:52:35.813Z,5.57
2018-08-07T05:55:05.314Z,5.60
2018-08-07T05:57:34.081Z,5.50
2018-08-07T06:00:03.073Z,5.33
2018-08-07T06:02:31.894Z,5.50
2018-08-07T06:05:00.557Z,4.77
2018-08-07T06:07:29.304Z,4.90
2018-08-07T06:09:58.043Z,4.40
2018-08-07T06:12:26.614Z,5.20
2018-08-07T06:14:55.191Z,5.90
2018-08-07T06:17:23.775Z,5.70
2018-08-07T06:19:52.478Z,6.70
2018-08-07T06:22:21.479Z,6.70
2018-08-07T06:24:50.162Z,6.90
2018-08-07T06:27:18.797Z,5.97
2018-08-07T06:29:47.442Z,6.53
2018-08-07T06:32:16.123Z,6.10
2018-08-07T06:34:44.823Z,5.97
2018-08-07T06:37:13.738Z,6.63
2018-08-07T06:39:42.478Z,6.63
2018-08-07T06:42:11.084Z,4.97
2018-08-07T06:44:39.779Z,5.07
2018-08-07T06:47:08.508Z,5.23
2018-08-07T06:49:37.387Z,5.43
2018-08-07T06:52:06.191Z,4.80
2018-08-07T06:54:35.009Z,5.70
2018-08-07T06:57:03.898Z,5.07
2018-08-07T06:59:32.545Z,5.03
2018-08-07T07:02:01.245Z,5.20
2018-08-07T07:04:29.982Z,5.50
2018-08-07T07:06:58.724Z,4.93
2018-08-07T07:09:27.348Z,5.57
2018-08-07T07:11:56.231Z,5.77
2018-08-07T07:14:24.888Z,5.50
2018-08-07T07:16:53.429Z,4.50
2018-08-07T07:19:22.107Z,4.53
2018-08-07T07:21:50.788Z,4.50
2018-08-07T07:24:19.538Z,4.83
2018-08-07T07:26:48.345Z,3.90
2018-08-07T07:29:17.205Z,3.80
2018-08-07T07:31:46.262Z,4.37
2018-08-07T07:34:15.206Z,4.60
2018-08-07T07:36:43.806Z,4.30
2018-08-07T07:39:12.508Z,3.97
2018-08-07T07:41:41.138Z,4.13
2018-08-07T07:44:09.983Z,3.93
2018-08-07T07:46:38.764Z,3.70
2018-08-07T07:49:07.430Z,4.20
2018-08-07T07:51:36.147Z,4.03
2018-08-07T07:54:04.956Z,4.30
2018-08-07T07:56:33.590Z,3.83
2018-08-07T07:59:02.432Z,4.13
2018-08-07T08:01:31.384Z,4.03
2018-08-07T08:04:00.034Z,4.23
2018-08-07T08:06:28.757Z,4.67
2018-08-07T08:08:57.426Z,4.30
2018-08-07T08:11:26.261Z,4.33
2018-08-07T08:13:54.961Z,4.93
2018-08-07T08:16:23.554Z,4.47
2018-08-07T08:18:52.213Z,4.10
2018-08-07T08:21:21.577Z,4.60
2018-08-07T08:23:50.246Z,5.03
2018-08-07T08:26:18.887Z,4.93
2018-08-07T08:28:47.704Z,4.53
2018-08-07T08:31:16.508Z,4.00
2018-08-07T08:33:45.983Z,3.40
2018-08-07T08:36:14.650Z,3.37
2018-08-07T08:38:43.349Z,3.40
2018-08-07T08:41:12.638Z,3.40
2018-08-07T08:43:41.327Z,2.43
2018-08-07T08:46:10.273Z,2.53
2018-08-07T08:48:39.080Z,2.93
2018-08-07T08:51:08.026Z,3.20
2018-08-07T08:53:36.674Z,2.87
2018-08-07T08:56:05.514Z,2.07
2018-08-07T08:58:34.222Z,2.23
2018-08-07T09:01:02.911Z,2.53
2018-08-07T09:03:31.695Z,3.07
2018-08-07T09:06:00.427Z,2.90
2018-08-07T09:08:29.117Z,3.03
2018-08-07T09:10:57.939Z,2.90
2018-08-07T09:13:26.690Z,3.23
2018-08-07T09:15:55.478Z,2.87
2018-08-07T09:18:24.167Z,3.27
2018-08-07T09:20:53.007Z,3.07
2018-08-07T09:23:22.063Z,2.50
2018-08-07T09:25:51.592Z,2.67
2018-08-07T09:28:20.127Z,3.10
2018-08-07T09:30:49.351Z,2.07
2018-08-07T09:33:18.149Z,2.67
2018-08-07T09:35:46.959Z,2.60
2018-08-07T09:38:15.580Z,2.40
2018-08-07T09:40:44.173Z,2.50
2018-08-07T09:43:12.979Z,2.30
2018-08-07T09:45:41.720Z,2.80
2018-08-07T09:48:12.164Z,2.27
2018-08-07T09:50:40.930Z,2.27
2018-08-07T09:53:10.164Z,2.10
2018-08-07T09:55:38.980Z,2.00
2018-08-07T09:58:07.836Z,2.20
2018-08-07T10:02:48.778Z,2.23
2018-08-07T10:05:17.906Z,1.70
2018-08-07T10:07:47.414Z,2.17
2018-08-07T10:10:16.360Z,2.33
2018-08-07T10:12:45.402Z,2.30
2018-08-07T10:15:14.575Z,2.43
2018-08-07T10:17:43.351Z,2.40
2018-08-07T10:22:12.042Z,2.10
2018-08-07T10:24:41.027Z,2.00
2018-08-07T10:27:10.723Z,1.70
2018-08-07T10:29:39.709Z,2.03
2018-08-07T10:32:08.601Z,2.00
2018-08-07T10:34:37.594Z,2.10
2018-08-07T10:37:06.382Z,2.03
2018-08-07T10:39:35.092Z,2.30
2018-08-07T10:42:03.800Z,2.30
2018-08-07T10:44:32.459Z,2.17
2018-08-07T10:47:02.175Z,2.00
2018-08-07T10:49:31.217Z,1.90
2018-08-07T10:52:01.529Z,2.00
2018-08-07T10:54:30.452Z,1.87
2018-08-07T10:57:03.712Z,2.17
2018-08-07T10:59:32.958Z,2.43
2018-08-07T11:02:02.434Z,2.20
2018-08-07T11:04:32.441Z,2.30
2018-08-07T11:07:01.388Z,2.83
2018-08-07T11:09:30.328Z,2.57
2018-08-07T11:11:59.359Z,2.20
2018-08-07T11:14:28.354Z,1.87
2018-08-07T11:16:57.244Z,2.20
2018-08-07T11:19:25.978Z,2.13
2018-08-07T11:21:55.154Z,1.90
2018-08-07T11:24:24.980Z,1.90
2018-08-07T11:26:53.654Z,2.17
2018-08-07T11:29:22.913Z,1.87
2018-08-07T11:31:51.763Z,2.20
2018-08-07T11:34:20.681Z,1.80
2018-08-07T11:36:49.374Z,2.00
2018-08-07T11:39:18.175Z,1.93
2018-08-07T11:41:47.365Z,2.10
2018-08-07T11:44:16.409Z,2.20
2018-08-07T11:46:45.155Z,2.43
2018-08-07T11:49:14.289Z,2.40
2018-08-07T11:51:43.408Z,2.00
2018-08-07T11:54:12.741Z,2.20
2018-08-07T11:56:41.298Z,2.20
2018-08-07T11:59:16.283Z,1.63
2018-08-07T12:01:45.415Z,1.70
2018-08-07T12:04:14.261Z,1.80
2018-08-07T12:06:43.561Z,1.53
2018-08-07T12:09:12.837Z,1.70
2018-08-07T12:11:42.535Z,1.50
2018-08-07T12:14:11.642Z,1.80
2018-08-07T12:16:41.053Z,1.50
2018-08-07T12:19:10.354Z,1.80
2018-08-07T12:21:39.603Z,1.77
2018-08-07T12:24:09.150Z,1.60
2018-08-07T12:26:38.354Z,1.70
2018-08-07T12:29:07.123Z,1.53
2018-08-07T12:31:36.205Z,1.80
2018-08-07T12:34:05.448Z,1.80
2018-08-07T12:36:34.469Z,1.80
2018-08-07T12:39:03.675Z,1.83
2018-08-07T12:41:32.814Z,1.90
2018-08-07T12:44:01.800Z,1.70
2018-08-07T12:46:30.661Z,1.63
2018-08-07T12:48:59.441Z,1.73
2018-08-07T12:51:28.155Z,1.80
2018-08-07T12:53:57.275Z,1.83
2018-08-07T12:56:26.384Z,1.80
2018-08-07T12:58:55.753Z,1.80
2018-08-07T13:01:24.874Z,1.80
2018-08-07T13:03:53.745Z,1.77
2018-08-07T13:06:22.989Z,1.60
2018-08-07T13:08:52.410Z,1.60
2018-08-07T13:11:22.080Z,1.47
2018-08-07T13:13:51.085Z,1.50
2018-08-07T13:16:20.096Z,1.70
2018-08-07T13:18:49.453Z,1.80
2018-08-07T13:21:18.261Z,1.33
2018-08-07T13:23:47.520Z,1.90
2018-08-07T13:26:16.780Z,1.40
2018-08-07T13:28:46.217Z,1.50
2018-08-07T13:31:15.470Z,1.33
2018-08-07T13:33:44.408Z,2.03
2018-08-07T13:36:13.431Z,1.70
2018-08-07T13:38:42.109Z,2.30
2018-08-07T13:41:11.082Z,1.57
2018-08-07T13:43:39.834Z,1.70
2018-08-07T13:46:08.688Z,1.97
2018-08-07T13:48:37.552Z,1.87
2018-08-07T13:51:06.965Z,1.67
2018-08-07T13:53:35.570Z,1.90
2018-08-07T13:56:04.257Z,1.67
2018-08-07T13:58:32.925Z,1.87
2018-08-07T14:01:02.094Z,1.27
2018-08-07T14:03:31.741Z,1.33
2018-08-07T14:06:00.428Z,1.50
2018-08-07T14:08:29.468Z,1.20
2018-08-07T14:10:58.272Z,1.70
2018-08-07T14:13:27.025Z,1.50
2018-08-07T14:15:56.802Z,1.53
2018-08-07T14:18:25.761Z,1.47
2018-08-07T14:20:54.772Z,1.50
2018-08-07T14:23:23.827Z,1.60
2018-08-07T14:25:53.854Z,1.70
2018-08-07T14:28:22.654Z,1.80
2018-08-07T14:30:51.876Z,1.70
2018-08-07T14:33:20.849Z,1.53
2018-08-07T14:35:50.121Z,1.63
2018-08-07T14:38:19.346Z,1.30
2018-08-07T14:40:48.231Z,1.50
2018-08-07T14:43:17.445Z,1.40
2018-08-07T14:45:46.030Z,1.53
2018-08-07T14:48:15.520Z,1.40
2018-08-07T14:50:44.438Z,1.40
2018-08-07T14:53:13.417Z,1.50
2018-08-07T14:55:42.259Z,1.67
2018-08-07T14:58:10.917Z,1.20
2018-08-07T15:03:56.271Z,1.60
2018-08-07T15:06:25.284Z,1.77
2018-08-07T15:08:54.004Z,1.80
2018-08-07T15:11:22.735Z,1.77
2018-08-07T15:13:51.467Z,1.50
2018-08-07T15:16:20.190Z,1.90
2018-08-07T15:18:48.971Z,1.60
2018-08-07T15:21:17.888Z,1.20
2018-08-07T15:23:47.247Z,1.40
2018-08-07T15:26:15.930Z,1.70
2018-08-07T15:28:44.514Z,1.90
2018-08-07T15:31:13.200Z,2.00
2018-08-07T15:33:42.057Z,1.97
2018-08-07T15:36:11.344Z,1.50
2018-08-07T15:38:40.421Z,2.00
2018-08-07T15:41:09.124Z,1.57
2018-08-07T15:43:37.899Z,1.50
2018-08-07T15:46:07.027Z,2.30
2018-08-07T15:48:36.007Z,2.17
2018-08-07T15:51:05.061Z,2.40
2018-08-07T15:53:34.129Z,1.60
2018-08-07T15:56:03.038Z,2.03
2018-08-07T15:58:31.750Z,1.80
2018-08-07T16:01:00.537Z,1.57
2018-08-07T16:03:29.399Z,1.43
2018-08-07T16:05:58.155Z,1.50
2018-08-07T16:08:27.060Z,1.73
2018-08-07T16:10:55.893Z,1.40
2018-08-07T16:13:24.682Z,1.40
2018-08-07T16:15:53.673Z,1.63
2018-08-07T16:18:22.406Z,1.50
2018-08-07T16:20:50.973Z,1.57
2018-08-07T16:23:19.718Z,1.50
2018-08-07T16:25:48.486Z,1.30
2018-08-07T16:28:17.112Z,2.20
2018-08-07T16:30:45.756Z,1.50
2018-08-07T16:33:14.427Z,2.07
2018-08-07T16:35:43.258Z,1.60
2018-08-07T16:38:12.075Z,1.80
2018-08-07T16:40:40.609Z,1.67
2018-08-07T16:43:09.335Z,1.50
2018-08-07T16:45:37.999Z,1.60
2018-08-07T16:48:06.609Z,1.63
2018-08-07T16:50:35.184Z,1.73
2018-08-07T16:53:03.772Z,1.60
2018-08-07T16:55:32.435Z,1.50
2018-08-07T16:58:01.375Z,1.43
2018-08-07T17:00:30.218Z,1.43
2018-08-07T17:02:59.383Z,1.20
2018-08-07T17:05:28.154Z,1.80
2018-08-07T17:07:57.093Z,1.53
2018-08-07T17:10:27.398Z,1.63
2018-08-07T17:12:56.225Z,1.30
2018-08-07T17:15:25.104Z,1.70
2018-08-07T17:17:54.146Z,1.53
2018-08-07T17:20:23.603Z,1.33
2018-08-07T17:22:54.027Z,1.50
2018-08-07T17:25:25.549Z,1.40
2018-08-07T17:27:54.513Z,1.40
2018-08-07T17:30:25.619Z,1.40
2018-08-07T17:32:54.325Z,1.57
2018-08-07T17:35:24.448Z,1.40
2018-08-07T17:37:55.467Z,1.33
2018-08-07T17:40:25.794Z,1.37
2018-08-07T17:42:54.672Z,1.70
2018-08-07T17:45:23.631Z,1.70
2018-08-07T17:47:52.751Z,1.43
2018-08-07T17:50:24.015Z,1.70
2018-08-07T17:52:53.633Z,1.60
2018-08-07T17:55:22.233Z,1.80
2018-08-07T17:57:52.002Z,1.83
2018-08-07T18:00:22.487Z,1.47
2018-08-07T18:02:51.517Z,1.60
2018-08-07T18:05:20.631Z,2.10
2018-08-07T18:07:51.449Z,1.90
2018-08-07T18:10:21.517Z,1.80
2018-08-07T18:12:50.469Z,2.17
2018-08-07T18:15:20.625Z,2.40
2018-08-07T18:17:49.908Z,2.20
2018-08-07T18:20:24.105Z,2.17
2018-08-07T18:22:52.844Z,2.03
2018-08-07T18:25:21.616Z,2.23
2018-08-07T18:27:50.263Z,2.30
2018-08-07T18:30:21.749Z,2.47
2018-08-07T18:32:51.178Z,2.43
2018-08-07T18:35:22.520Z,2.27
2018-08-07T18:37:51.186Z,2.60
2018-08-07T18:40:19.799Z,2.93
2018-08-07T18:42:48.636Z,3.10
2018-08-07T18:45:17.349Z,2.93
2018-08-07T18:47:46.686Z,3.57
2018-08-07T18:50:17.117Z,3.40
2018-08-07T18:52:45.807Z,4.20
2018-08-07T18:55:15.388Z,4.23
2018-08-07T18:57:46.325Z,4.50
2018-08-07T19:00:20.889Z,4.87
2018-08-07T19:02:49.698Z,4.37
2018-08-07T19:05:19.696Z,4.07
2018-08-07T19:07:48.290Z,3.90
2018-08-07T19:10:17.272Z,5.03
2018-08-07T19:12:46.963Z,5.23
2018-08-07T19:15:17.316Z,5.20
2018-08-07T19:17:46.184Z,5.47
2018-08-07T19:20:18.101Z,6.13
2018-08-07T19:22:47.371Z,7.50
2018-08-07T19:25:16.187Z,6.73
2018-08-07T19:27:45.609Z,5.50
2018-08-07T19:30:16.288Z,5.13
2018-08-07T19:32:45.151Z,7.57
2018-08-07T19:35:14.520Z,6.97
2018-08-07T19:37:43.293Z,6.87
2018-08-07T19:40:15.694Z,6.90
2018-08-07T19:42:45.575Z,7.17
2018-08-07T19:45:14.534Z,7.80
2018-08-07T19:47:44.119Z,6.50
2018-08-07T19:50:14.295Z,8.17
2018-08-07T19:52:43.977Z,11.03
2018-08-07T19:55:15.856Z,9.93
2018-08-07T19:57:45.027Z,7.30
2018-08-07T20:00:20.527Z,6.07
2018-08-07T20:02:49.723Z,6.90
2018-08-07T20:05:18.545Z,5.83
2018-08-07T20:07:47.377Z,5.20
2018-08-07T20:10:17.355Z,4.60
2018-08-07T20:12:46.272Z,4.57
2018-08-07T20:15:20.526Z,4.70
2018-08-07T20:17:49.914Z,4.20
2018-08-07T20:20:19.437Z,4.60
2018-08-07T20:22:48.382Z,5.10
2018-08-07T20:25:17.317Z,4.70
2018-08-07T20:27:46.141Z,4.67
2018-08-07T20:30:16.454Z,4.67
2018-08-07T20:32:46.337Z,4.80
2018-08-07T20:35:15.162Z,3.93
2018-08-07T20:37:43.841Z,4.07
2018-08-07T20:40:17.486Z,4.17
2018-08-07T20:42:46.574Z,4.40
2018-08-07T20:45:17.255Z,4.40
2018-08-07T20:47:46.062Z,3.83
2018-08-07T20:50:17.414Z,4.53
2018-08-07T20:52:46.342Z,4.27
2018-08-07T20:55:15.440Z,4.57
2018-08-07T20:57:44.254Z,4.27
2018-08-07T21:00:16.282Z,4.10
2018-08-07T21:02:45.369Z,4.33
2018-08-07T21:05:14.142Z,4.00
2018-08-07T21:07:42.860Z,4.00
2018-08-07T21:10:13.981Z,4.00
2018-08-07T21:12:43.018Z,3.77
2018-08-07T21:15:12.444Z,4.07
2018-08-07T21:17:41.551Z,4.50
2018-08-07T21:20:13.905Z,4.10
2018-08-07T21:22:42.816Z,4.10
2018-08-07T21:25:15.520Z,4.40
2018-08-07T21:27:45.008Z,4.57
2018-08-07T21:30:15.457Z,5.00
2018-08-07T21:32:44.025Z,4.37
2018-08-07T21:35:12.855Z,4.40
2018-08-07T21:37:41.936Z,4.47
2018-08-07T21:40:13.175Z,4.53
2018-08-07T21:42:42.474Z,4.60
2018-08-07T21:45:12.593Z,4.37
2018-08-07T21:47:41.559Z,4.20
2018-08-07T21:50:13.852Z,4.53
2018-08-07T21:52:42.720Z,4.77
2018-08-07T21:55:13.722Z,4.40
2018-08-07T21:57:44.712Z,4.57
2018-08-07T22:00:50.521Z,4.53
2018-08-07T22:03:20.716Z,4.70
2018-08-07T22:05:50.280Z,5.40
2018-08-07T22:08:19.466Z,4.70
2018-08-07T22:10:49.164Z,4.47
2018-08-07T22:13:18.486Z,4.90
2018-08-07T22:15:47.264Z,4.70
2018-08-07T22:18:19.651Z,4.40
2018-08-07T22:20:48.347Z,4.43
2018-08-07T22:23:17.517Z,4.70
2018-08-07T22:25:46.231Z,5.20
2018-08-07T22:28:15.777Z,4.80
2018-08-07T22:30:44.539Z,5.37
2018-08-07T22:33:14.370Z,4.90
2018-08-07T22:35:43.359Z,5.00
2018-08-07T22:38:12.452Z,5.20
2018-08-07T22:40:42.418Z,4.70
2018-08-07T22:43:11.336Z,4.67
2018-08-07T22:45:41.136Z,5.13
2018-08-07T22:48:10.271Z,4.77
2018-08-07T22:50:39.394Z,4.63
2018-08-07T22:53:08.035Z,4.63
2018-08-07T22:55:36.742Z,4.60
2018-08-07T22:58:05.875Z,4.50
2018-08-07T23:00:35.342Z,4.13
2018-08-07T23:03:04.169Z,4.83
2018-08-07T23:05:32.887Z,4.40
2018-08-07T23:08:01.621Z,4.70
2018-08-07T23:10:30.533Z,4.30
2018-08-07T23:12:59.129Z,4.60
2018-08-07T23:15:27.851Z,4.50
2018-08-07T23:17:56.456Z,4.93
2018-08-07T23:20:26.659Z,4.97
2018-08-07T23:22:56.856Z,4.10
2018-08-07T23:25:25.465Z,4.33
2018-08-07T23:27:54.297Z,4.87
2018-08-07T23:30:23.010Z,4.50
2018-08-07T23:32:51.678Z,4.60
2018-08-07T23:35:21.400Z,4.10
2018-08-07T23:37:49.934Z,4.67
2018-08-07T23:40:18.749Z,4.37
2018-08-07T23:42:47.572Z,4.47
2018-08-07T23:45:16.542Z,4.50
2018-08-07T23:47:45.136Z,4.50
2018-08-07T23:50:14.480Z,4.30
2018-08-07T23:52:43.062Z,4.40
2018-08-07T23:55:11.733Z,4.43
2018-08-07T23:57:40.576Z,4.60
